Time;durP1;ratioP1;P1;durP2;ratioP2;P2;SDS_P1;SDS_P2;PMS_P1;PMS_P2;Temp;Humidity;BMP_temperature;BMP_pressure;BME280_temperature;BME280_humidity;BME280_pressure;Samples;Min_cycle;Max_cycle;Signal;HPM_P1;HPM_P2
2020/12/12 00:00:37;;;;;;;128.48;73.68;;;;;;;5.38;77.23;93509.47;4175877;28;20521;-78
2020/12/12 00:02:38;;;;;;;124.03;71.43;;;;;;;5.46;76.89;93509.50;4187318;28;20124;-77
2020/12/12 00:04:40;;;;;;;130.95;75.22;;;;;;;5.53;76.54;93503.53;4181232;28;20166;-80
2020/12/12 00:06:42;;;;;;;125.20;72.32;;;;;;;5.56;76.31;93496.38;4202356;28;20090;-79
2020/12/12 00:08:43;;;;;;;130.95;73.68;;;;;;;5.60;76.75;93497.69;4184852;28;20462;-77
2020/12/12 00:10:46;;;;;;;121.25;71.43;;;;;;;5.66;76.43;93497.88;4205005;28;20093;-77
2020/12/12 00:12:48;;;;;;;132.05;75.90;;;;;;;5.73;75.89;93490.25;4196931;28;20048;-78
2020/12/12 00:14:50;;;;;;;137.68;74.15;;;;;;;5.73;76.19;93492.84;4184535;28;20244;-76
2020/12/12 00:16:52;;;;;;;123.13;72.20;;;;;;;5.79;75.39;93488.81;4171002;28;20051;-69
2020/12/12 00:18:53;;;;;;;138.10;75.20;;;;;;;5.75;75.50;93489.13;4190094;28;20063;-68
2020/12/12 00:20:54;;;;;;;131.02;75.82;;;;;;;5.79;76.25;93488.81;4190943;28;20247;-77
2020/12/12 00:22:56;;;;;;;128.63;74.50;;;;;;;5.84;75.60;93487.34;4179761;28;20058;-78
2020/12/12 00:24:57;;;;;;;124.40;71.68;;;;;;;5.87;75.03;93484.44;4181640;28;20045;-77
2020/12/12 00:26:59;;;;;;;124.55;72.72;;;;;;;5.84;75.27;93481.34;4191050;28;20535;-80
2020/12/12 00:29:00;;;;;;;128.00;72.93;;;;;;;5.85;75.17;93488.16;4192328;28;20496;-77
2020/12/12 00:31:01;;;;;;;114.90;67.10;;;;;;;5.87;75.53;93481.00;4181387;28;20061;-77
2020/12/12 00:33:03;;;;;;;119.93;66.55;;;;;;;5.90;74.99;93475.50;4182898;28;20139;-77
2020/12/12 00:35:04;;;;;;;117.15;66.80;;;;;;;5.79;75.79;93476.63;4194000;28;20049;-78
2020/12/12 00:37:05;;;;;;;117.35;67.80;;;;;;;5.53;76.44;93474.16;4182659;28;20048;-78
2020/12/12 00:39:07;;;;;;;118.07;68.13;;;;;;;5.29;77.25;93470.50;4201924;28;20462;-78
2020/12/12 00:41:08;;;;;;;110.53;66.32;;;;;;;5.30;78.01;93469.50;4188460;28;20040;-77
2020/12/12 00:43:10;;;;;;;107.95;63.15;;;;;;;5.14;78.63;93466.84;4194160;28;20582;-76
2020/12/12 00:45:11;;;;;;;103.28;60.90;;;;;;;5.08;78.24;93464.91;4173703;28;20050;-77
2020/12/12 00:47:12;;;;;;;101.03;60.75;;;;;;;5.16;78.85;93458.91;4166295;28;20477;-79
2020/12/12 00:49:13;;;;;;;97.82;57.33;;;;;;;5.25;77.98;93450.19;4186752;28;20072;-78
2020/12/12 00:51:15;;;;;;;102.47;57.72;;;;;;;5.32;78.24;93462.38;4195740;28;20060;-77
2020/12/12 00:53:16;;;;;;;100.20;58.85;;;;;;;5.18;78.30;93459.56;4200925;28;20060;-78
2020/12/12 00:55:17;;;;;;;99.13;60.40;;;;;;;5.14;78.95;93456.47;4176281;28;20049;-76
2020/12/12 00:57:19;;;;;;;100.38;58.38;;;;;;;5.21;79.10;93451.47;4192310;28;20077;-78
2020/12/12 00:59:20;;;;;;;108.15;60.60;;;;;;;5.30;78.19;93450.53;4192198;28;20289;-78
2020/12/12 01:01:21;;;;;;;101.55;59.50;;;;;;;5.44;78.26;93454.28;4195511;28;20041;-77
2020/12/12 01:03:22;;;;;;;98.35;58.53;;;;;;;5.44;77.44;93454.28;4176591;28;20056;-77
2020/12/12 01:05:24;;;;;;;101.90;59.35;;;;;;;5.43;77.14;93450.09;4195342;28;20056;-77
2020/12/12 01:07:25;;;;;;;100.95;59.20;;;;;;;5.38;77.90;93453.16;4194287;28;20109;-76
2020/12/12 01:09:26;;;;;;;110.20;63.05;;;;;;;5.18;77.55;93450.00;4194421;28;20056;-77
2020/12/12 01:11:27;;;;;;;103.68;61.55;;;;;;;4.88;78.22;93449.56;4176070;28;20056;-76
2020/12/12 01:13:28;;;;;;;110.05;61.42;;;;;;;4.75;79.10;93445.75;4194685;28;20044;-77
2020/12/12 01:15:30;;;;;;;109.68;63.47;;;;;;;4.57;79.50;93438.84;4184696;28;20059;-76
2020/12/12 01:17:33;;;;;;;108.97;60.30;;;;;;;4.55;79.71;93432.19;4194929;28;20059;-76
2020/12/12 01:19:35;;;;;;;106.72;60.42;;;;;;;4.59;80.37;93436.13;4181424;28;20826;-77
2020/12/12 01:21:36;;;;;;;82.32;49.22;;;;;;;4.67;80.25;93430.97;4194477;28;20052;-78
2020/12/12 01:23:37;;;;;;;69.68;42.33;;;;;;;4.75;81.50;93427.59;4194664;28;20056;-77
2020/12/12 01:25:39;;;;;;;68.15;41.25;;;;;;;4.80;80.76;93420.97;4194799;28;20051;-76
2020/12/12 01:27:41;;;;;;;82.22;48.85;;;;;;;4.96;80.73;93419.41;4174251;28;20061;-75
2020/12/12 01:29:42;;;;;;;83.63;51.50;;;;;;;5.07;79.63;93416.53;4194440;28;20489;-77
2020/12/12 01:31:47;;;;;;;61.00;36.28;;;;;;;5.19;79.93;93419.66;4194712;28;20045;-68
2020/12/12 01:33:49;;;;;;;60.40;38.00;;;;;;;5.29;79.82;93415.97;4192235;28;20056;-69
2020/12/12 01:35:50;;;;;;;47.47;30.50;;;;;;;5.39;79.80;93421.00;4177902;28;20052;-70
2020/12/12 01:37:51;;;;;;;51.20;32.85;;;;;;;5.47;79.50;93410.63;4194422;28;20053;-70
2020/12/12 01:39:52;;;;;;;53.50;32.00;;;;;;;5.54;79.22;93410.81;4192259;28;20052;-69
2020/12/12 01:41:54;;;;;;;40.72;27.33;;;;;;;5.63;78.89;93409.84;4175016;28;20059;-69
2020/12/12 01:43:55;;;;;;;40.47;26.58;;;;;;;5.65;79.29;93407.91;4194606;28;20431;-69
2020/12/12 01:45:57;;;;;;;35.10;24.02;;;;;;;5.70;78.82;93397.84;4173117;28;20044;-70
2020/12/12 01:47:58;;;;;;;26.38;18.92;;;;;;;5.69;78.69;93400.59;4193294;28;20052;-69
2020/12/12 01:50:00;;;;;;;32.47;20.30;;;;;;;5.74;79.03;93396.56;4174306;28;20072;-70
2020/12/12 01:52:03;;;;;;;28.92;20.25;;;;;;;5.82;78.73;93400.13;4159725;28;20053;-68
2020/12/12 01:54:05;;;;;;;32.97;20.75;;;;;;;5.92;79.19;93403.38;4174577;28;20052;-68
2020/12/12 01:56:06;;;;;;;25.70;18.50;;;;;;;5.97;78.78;93389.94;4175916;28;20052;-69
2020/12/12 01:58:07;;;;;;;33.42;17.95;;;;;;;6.03;78.75;93391.88;4175805;28;20061;-69
2020/12/12 02:00:08;;;;;;;24.10;16.17;;;;;;;6.01;79.19;93386.84;4191092;28;20060;-69
2020/12/12 02:02:11;;;;;;;23.77;15.55;;;;;;;5.97;78.91;93387.31;4176498;28;20544;-68
2020/12/12 02:04:18;;;;;;;22.92;15.68;;;;;;;6.04;79.61;93389.09;4175038;28;20097;-69
2020/12/12 02:06:20;;;;;;;21.67;15.35;;;;;;;6.05;79.93;93376.94;4174929;28;20053;-70
2020/12/12 02:08:21;;;;;;;18.63;14.43;;;;;;;6.05;79.49;93377.72;4175527;28;20045;-69
2020/12/12 02:10:22;;;;;;;24.02;15.07;;;;;;;6.05;79.85;93372.53;4175101;28;20512;-70
2020/12/12 02:12:24;;;;;;;20.92;14.80;;;;;;;6.07;80.19;93374.97;4190964;28;20445;-68
2020/12/12 02:14:25;;;;;;;19.27;13.98;;;;;;;6.04;80.12;93378.69;4192957;28;20466;-68
2020/12/12 02:16:26;;;;;;;19.10;13.65;;;;;;;5.95;80.27;93371.88;4200086;28;20579;-70
2020/12/12 02:18:27;;;;;;;17.60;13.27;;;;;;;5.99;80.94;93375.78;4158260;28;20087;-69
2020/12/12 02:20:29;;;;;;;15.57;11.98;;;;;;;6.00;80.35;93369.63;4193675;28;20045;-69
2020/12/12 02:22:30;;;;;;;14.50;10.60;;;;;;;5.85;80.87;93366.84;4190425;28;20048;-68
2020/12/12 02:24:33;;;;;;;17.88;12.48;;;;;;;5.85;81.51;93366.84;4174371;28;20139;-69
2020/12/12 02:26:34;;;;;;;14.43;10.95;;;;;;;5.85;81.59;93361.63;4174119;28;20049;-69
2020/12/12 02:28:52;;;;;;;20.73;11.57;;;;;;;5.89;80.96;93364.69;4192829;28;20057;-76
2020/12/12 02:30:54;;;;;;;14.40;11.18;;;;;;;5.88;80.76;93357.91;4193758;28;20124;-77
2020/12/12 02:32:55;;;;;;;13.93;10.70;;;;;;;5.94;81.06;93358.09;4185673;28;20050;-76
2020/12/12 02:34:56;;;;;;;16.30;11.82;;;;;;;5.98;80.72;93357.75;4192987;28;20070;-75
2020/12/12 02:36:58;;;;;;;13.43;11.38;;;;;;;5.97;80.72;93356.94;4190376;28;20075;-77
2020/12/12 02:38:59;;;;;;;13.20;10.80;;;;;;;5.98;81.22;93357.75;4193611;28;20052;-77
2020/12/12 02:41:00;;;;;;;16.38;11.60;;;;;;;6.01;80.77;93353.03;4175215;28;20205;-76
2020/12/12 02:43:01;;;;;;;15.63;10.95;;;;;;;5.87;80.98;93345.88;4173991;28;20064;-77
2020/12/12 02:45:03;;;;;;;13.85;10.95;;;;;;;5.93;80.89;93342.63;4194231;28;20423;-77
2020/12/12 02:47:04;;;;;;;15.30;11.13;;;;;;;5.95;80.83;93351.91;4174391;28;20580;-77
2020/12/12 02:49:06;;;;;;;13.07;10.30;;;;;;;5.99;80.70;93338.59;4175834;28;20120;-77
2020/12/12 02:51:07;;;;;;;14.05;10.85;;;;;;;5.86;81.24;93339.84;4194047;28;20056;-77
2020/12/12 02:53:08;;;;;;;16.35;10.60;;;;;;;5.80;81.33;93335.31;4175130;28;20488;-77
2020/12/12 02:55:13;;;;;;;14.82;10.52;;;;;;;5.71;81.54;93342.28;4174506;28;20567;-76
2020/12/12 02:57:14;;;;;;;14.40;9.45;;;;;;;5.68;81.77;93342.63;4171388;28;20628;-76
2020/12/12 02:59:15;;;;;;;15.18;10.57;;;;;;;5.65;81.68;93345.53;4195685;28;20064;-76
2020/12/12 03:01:16;;;;;;;13.73;9.80;;;;;;;5.65;82.07;93340.34;4196593;28;20040;-77
2020/12/12 03:03:18;;;;;;;14.45;10.40;;;;;;;5.68;81.68;93337.44;4196965;28;20491;-76
2020/12/12 03:05:19;;;;;;;13.02;10.07;;;;;;;5.72;81.89;93338.75;4199255;28;20041;-76
2020/12/12 03:07:20;;;;;;;14.88;10.30;;;;;;;5.77;81.43;93338.25;4197281;28;20051;-76
2020/12/12 03:09:22;;;;;;;13.00;9.45;;;;;;;5.73;82.09;93337.75;4193513;28;20100;-79
2020/12/12 03:11:23;;;;;;;10.93;8.90;;;;;;;5.81;81.55;93333.50;4191277;28;20072;-76
2020/12/12 03:13:24;;;;;;;11.82;8.73;;;;;;;5.89;81.35;93333.50;4175164;28;20170;-77
2020/12/12 03:15:26;;;;;;;10.10;8.30;;;;;;;5.86;81.50;93328.66;4175116;28;20044;-75
2020/12/12 03:17:27;;;;;;;10.65;8.18;;;;;;;5.81;81.54;93330.91;4174770;28;20061;-76
2020/12/12 03:19:28;;;;;;;12.68;8.55;;;;;;;5.79;81.47;93332.91;4193399;28;20060;-77
2020/12/12 03:21:30;;;;;;;11.13;8.38;;;;;;;5.65;81.72;93334.34;4191451;28;20049;-76
2020/12/12 03:23:31;;;;;;;11.85;8.80;;;;;;;5.64;81.79;93324.94;4179636;28;20292;-76
2020/12/12 03:25:32;;;;;;;10.02;8.32;;;;;;;5.60;82.05;93329.63;4184647;28;20049;-76
2020/12/12 03:27:33;;;;;;;11.48;8.13;;;;;;;5.63;82.34;93331.09;4191211;28;20063;-75
2020/12/12 03:29:37;;;;;;;10.82;8.40;;;;;;;5.69;82.38;93328.66;4191115;28;20062;-77
2020/12/12 03:31:38;;;;;;;9.07;7.60;;;;;;;5.70;81.99;93321.66;4194995;28;20073;-76
2020/12/12 03:33:40;;;;;;;10.07;7.40;;;;;;;5.73;81.49;93314.38;4195381;28;20543;-76
2020/12/12 03:35:41;;;;;;;9.35;7.38;;;;;;;5.73;82.29;93323.97;4171551;28;20048;-76
2020/12/12 03:37:43;;;;;;;8.85;7.40;;;;;;;5.77;81.89;93321.84;4192262;28;20056;-78
2020/12/12 03:39:44;;;;;;;12.68;7.80;;;;;;;5.82;82.18;93316.97;4192886;28;20069;-77
2020/12/12 03:41:45;;;;;;;9.48;7.25;;;;;;;5.81;81.52;93317.91;4193623;28;20101;-77
2020/12/12 03:43:46;;;;;;;9.05;6.35;;;;;;;5.80;81.07;93324.91;4192655;28;20052;-77
2020/12/12 03:45:48;;;;;;;8.98;6.15;;;;;;;5.79;81.14;93318.09;4191695;28;20056;-76
2020/12/12 03:47:49;;;;;;;8.82;5.95;;;;;;;5.79;80.99;93317.31;4174959;28;20080;-76
2020/12/12 03:49:50;;;;;;;9.07;5.70;;;;;;;5.74;81.01;93308.22;4174301;28;20049;-76
2020/12/12 03:51:51;;;;;;;8.60;5.80;;;;;;;5.78;80.62;93310.47;4192442;28;20458;-79
2020/12/12 03:53:53;;;;;;;8.18;5.40;;;;;;;5.82;81.04;93312.56;4193374;28;20071;-77
2020/12/12 03:55:54;;;;;;;7.95;5.82;;;;;;;5.88;80.87;93309.31;4174945;28;20048;-76
2020/12/12 03:57:55;;;;;;;5.93;4.97;;;;;;;5.83;81.04;93310.78;4190903;28;20176;-76
2020/12/12 03:59:56;;;;;;;7.25;4.82;;;;;;;5.82;80.16;93307.38;4192609;28;20051;-77
2020/12/12 04:01:58;;;;;;;4.97;4.00;;;;;;;5.75;79.93;93301.22;4174520;28;20053;-78
2020/12/12 04:03:59;;;;;;;5.88;4.45;;;;;;;5.78;79.87;93302.66;4174546;28;20088;-77
2020/12/12 04:06:01;;;;;;;5.90;4.50;;;;;;;5.70;79.97;93296.53;4175880;28;20045;-76
2020/12/12 04:08:02;;;;;;;5.13;3.05;;;;;;;5.55;79.38;93300.75;4195110;28;20058;-77
2020/12/12 04:10:04;;;;;;;3.90;3.05;;;;;;;5.52;79.86;93293.28;4178658;28;20060;-77
2020/12/12 04:12:05;;;;;;;4.35;3.15;;;;;;;5.51;80.32;93295.06;4193856;28;20087;-77
2020/12/12 04:14:07;;;;;;;4.35;3.13;;;;;;;5.56;80.50;93299.75;4195154;28;20098;-77
2020/12/12 04:16:08;;;;;;;4.07;2.90;;;;;;;5.67;79.91;93293.44;4196058;28;20040;-76
2020/12/12 04:18:10;;;;;;;3.80;3.00;;;;;;;5.76;79.48;93297.63;4194427;28;20044;-79
2020/12/12 04:20:11;;;;;;;4.68;2.60;;;;;;;5.69;79.35;93297.47;4195360;28;20044;-77
2020/12/12 04:22:12;;;;;;;3.10;2.53;;;;;;;5.63;79.57;93292.94;4160915;28;20219;-77
2020/12/12 04:24:14;;;;;;;4.68;2.80;;;;;;;5.61;79.82;93299.28;4195084;28;20144;-77
2020/12/12 04:26:15;;;;;;;3.50;2.63;;;;;;;5.60;79.07;93290.66;4176900;28;20102;-77
2020/12/12 04:28:16;;;;;;;3.38;2.47;;;;;;;5.65;79.72;93293.56;4193264;28;20423;-69
2020/12/12 04:30:17;;;;;;;3.38;2.33;;;;;;;5.64;79.89;93291.16;4195012;28;20102;-69
2020/12/12 04:32:19;;;;;;;4.20;2.42;;;;;;;5.66;79.63;93290.03;4195260;28;20106;-69
2020/12/12 04:34:20;;;;;;;3.72;2.50;;;;;;;5.68;78.74;93288.06;4194375;28;20398;-68
2020/12/12 04:36:21;;;;;;;3.35;2.40;;;;;;;5.65;78.48;93284.97;4193451;28;20574;-68
2020/12/12 04:38:23;;;;;;;3.15;2.17;;;;;;;5.67;78.98;93293.44;4192842;28;20111;-69
2020/12/12 04:40:40;;;;;;;3.63;2.30;;;;;;;5.71;78.76;93287.72;4194414;28;20468;-69
2020/12/12 04:42:42;;;;;;;3.13;2.35;;;;;;;5.79;79.23;93289.53;4175383;28;20099;-69
2020/12/12 04:44:43;;;;;;;3.00;2.25;;;;;;;5.79;78.59;93278.31;4177175;28;20072;-69
2020/12/12 04:46:46;;;;;;;3.22;2.28;;;;;;;5.80;78.50;93290.31;4194759;28;20212;-69
2020/12/12 04:48:47;;;;;;;4.57;2.50;;;;;;;5.74;79.06;93279.63;4176003;28;20049;-68
2020/12/12 04:50:49;;;;;;;2.70;2.10;;;;;;;5.71;78.47;93277.34;4194073;28;20102;-69
2020/12/12 04:52:50;;;;;;;3.90;2.17;;;;;;;5.62;78.77;93275.72;4183476;28;20052;-68
2020/12/12 04:54:52;;;;;;;3.40;2.10;;;;;;;5.68;78.94;93282.88;4194588;28;20060;-69
2020/12/12 04:56:53;;;;;;;3.05;1.88;;;;;;;5.69;78.39;93274.09;4174558;28;20063;-69
2020/12/12 04:58:55;;;;;;;3.10;2.20;;;;;;;5.70;78.33;93278.34;4176192;28;20068;-70
2020/12/12 05:00:57;;;;;;;2.95;1.90;;;;;;;5.71;78.08;93269.53;4177071;28;20063;-68
2020/12/12 05:02:58;;;;;;;3.35;1.98;;;;;;;5.73;77.83;93272.78;4175784;28;20467;-69
2020/12/12 05:04:59;;;;;;;3.00;2.25;;;;;;;5.75;77.13;93270.03;4175445;28;20090;-69
2020/12/12 05:07:01;;;;;;;5.30;1.98;;;;;;;5.75;77.77;93268.25;4176097;28;20554;-69
2020/12/12 05:09:03;;;;;;;3.35;2.00;;;;;;;5.73;77.81;93272.78;4175371;28;20052;-69
2020/12/12 05:11:04;;;;;;;3.35;2.33;;;;;;;5.67;78.13;93268.25;4175835;28;20053;-69
2020/12/12 05:13:20;;;;;;;3.55;2.13;;;;;;;5.67;78.17;93263.06;4190855;28;20044;-70
2020/12/12 05:15:22;;;;;;;3.15;2.40;;;;;;;5.69;78.35;93257.69;4187268;28;20098;-69
2020/12/12 05:17:23;;;;;;;3.45;2.38;;;;;;;5.70;78.23;93260.16;4174243;28;20056;-68
2020/12/12 05:19:25;;;;;;;3.08;2.10;;;;;;;5.64;77.70;93263.41;4186800;28;20065;-76
2020/12/12 05:21:26;;;;;;;2.40;1.85;;;;;;;5.64;77.94;93260.78;4194488;28;20480;-77
2020/12/12 05:23:27;;;;;;;3.65;2.17;;;;;;;5.67;78.18;93255.25;4194098;28;20064;-78
2020/12/12 05:25:29;;;;;;;4.47;2.10;;;;;;;5.66;78.49;93252.84;4194679;28;20344;-76
2020/12/12 05:27:30;;;;;;;4.63;2.22;;;;;;;5.69;78.26;93257.69;4194255;28;20049;-77
2020/12/12 05:29:31;;;;;;;2.65;1.80;;;;;;;5.72;77.97;93254.75;4175911;28;20049;-77
2020/12/12 05:31:33;;;;;;;2.65;1.88;;;;;;;5.48;77.34;93251.22;4176100;28;20063;-76
2020/12/12 05:33:34;;;;;;;2.35;1.80;;;;;;;5.50;78.32;93256.25;4176632;28;20166;-76
2020/12/12 05:35:35;;;;;;;3.35;1.70;;;;;;;5.56;78.79;93258.19;4186103;28;20044;-77
2020/12/12 05:37:40;;;;;;;3.45;1.80;;;;;;;5.56;78.67;93244.41;4176056;28;20045;-69
2020/12/12 05:39:41;;;;;;;3.38;2.20;;;;;;;5.57;78.89;93252.03;4187185;28;20047;-69
2020/12/12 05:41:43;;;;;;;2.47;1.75;;;;;;;5.57;78.76;93253.81;4192400;28;20110;-70
2020/12/12 05:43:45;;;;;;;3.65;2.10;;;;;;;5.56;79.09;93249.59;4188190;28;20056;-69
2020/12/12 05:45:46;;;;;;;3.00;1.70;;;;;;;5.60;78.43;93256.91;4176158;28;20462;-70
2020/12/12 05:47:49;;;;;;;3.17;2.30;;;;;;;5.70;78.26;93256.72;4206270;28;20467;-69
2020/12/12 05:49:50;;;;;;;3.40;2.22;;;;;;;5.74;78.78;93245.84;4176236;28;20374;-70
2020/12/12 05:51:52;;;;;;;3.53;1.70;;;;;;;5.78;77.96;93248.09;4192757;28;20102;-69
2020/12/12 05:53:54;;;;;;;3.40;2.33;;;;;;;5.80;78.46;93252.16;4176177;28;20144;-70
2020/12/12 05:55:56;;;;;;;7.88;4.88;;;;;;;5.77;77.22;93251.69;4192661;28;20055;-76
2020/12/12 05:57:58;;;;;;;8.50;4.07;;;;;;;5.80;77.75;93246.16;4175757;28;20066;-78
2020/12/12 06:00:01;;;;;;;15.25;9.73;;;;;;;5.76;76.94;93245.66;4194531;28;20037;-78
2020/12/12 06:02:05;;;;;;;16.35;10.27;;;;;;;5.75;77.13;93246.66;4176359;28;20057;-77
2020/12/12 06:04:10;;;;;;;10.57;7.43;;;;;;;5.72;77.14;93245.19;4193519;28;20218;-78
2020/12/12 06:06:13;;;;;;;13.85;8.52;;;;;;;5.68;77.41;93243.09;4180469;28;20048;-79
2020/12/12 06:08:33;;;;;;;5.10;3.17;;;;;;;5.73;77.82;93241.59;4156426;28;20530;-77
2020/12/12 06:10:34;;;;;;;2.30;1.70;;;;;;;5.73;77.25;93246.81;4193777;28;20048;-77
2020/12/12 06:12:36;;;;;;;3.10;1.90;;;;;;;5.73;77.02;93241.59;4174132;28;20468;-76
2020/12/12 06:14:37;;;;;;;2.70;2.00;;;;;;;5.72;77.24;93241.75;4174894;28;20063;-77
2020/12/12 06:16:40;;;;;;;3.15;1.85;;;;;;;5.77;76.98;93246.50;4192546;28;20100;-77
2020/12/12 06:18:48;;;;;;;3.38;2.05;;;;;;;5.75;77.23;93244.06;4194268;28;20063;-78
2020/12/12 06:20:53;;;;;;;2.70;1.70;;;;;;;5.75;76.92;93238.84;4175946;28;20144;-75
2020/12/12 06:22:54;;;;;;;2.70;1.75;;;;;;;5.78;77.43;93240.31;4174808;28;20161;-79
2020/12/12 06:25:00;;;;;;;3.47;2.05;;;;;;;5.80;77.38;93236.56;4194946;28;20087;-76
2020/12/12 06:27:03;;;;;;;2.10;1.50;;;;;;;5.77;77.29;93241.28;4198891;28;20156;-79
2020/12/12 06:29:04;;;;;;;3.90;1.98;;;;;;;5.78;77.45;93235.91;4188911;28;20124;-76
2020/12/12 06:31:07;;;;;;;2.75;1.90;;;;;;;5.77;77.26;93242.09;4200033;28;20506;-77
2020/12/12 06:33:08;;;;;;;3.20;2.05;;;;;;;5.81;77.51;93232.16;4157636;28;20045;-77
2020/12/12 06:35:13;;;;;;;2.88;1.80;;;;;;;5.80;76.78;93233.16;4191154;28;20048;-78
2020/12/12 06:37:33;;;;;;;2.80;1.83;;;;;;;5.74;76.62;93227.66;4195568;28;20127;-78
2020/12/12 06:39:44;;;;;;;2.70;1.88;;;;;;;5.62;77.69;93233.38;4171150;28;20059;-78
2020/12/12 06:41:47;;;;;;;3.03;1.80;;;;;;;5.62;77.95;93233.38;4187814;28;20060;-77
2020/12/12 06:43:55;;;;;;;3.45;2.30;;;;;;;5.62;77.61;93236.75;4193496;28;20062;-78
2020/12/12 06:45:57;;;;;;;2.65;1.60;;;;;;;5.66;77.81;93232.88;4192928;28;20491;-77
2020/12/12 06:47:59;;;;;;;10.32;6.75;;;;;;;5.65;77.97;93233.81;4193539;28;20075;-76
2020/12/12 06:50:05;;;;;;;6.30;4.07;;;;;;;5.71;77.41;93240.16;4192871;28;20056;-75
2020/12/12 06:52:06;;;;;;;7.10;4.38;;;;;;;5.68;77.78;93235.31;4193123;28;20076;-77
2020/12/12 06:54:08;;;;;;;7.32;3.65;;;;;;;5.60;77.75;93235.31;4177016;28;20052;-77
2020/12/12 06:56:10;;;;;;;4.93;3.20;;;;;;;5.43;79.26;93235.31;4177003;28;20076;-76
2020/12/12 06:58:22;;;;;;;4.15;2.63;;;;;;;5.36;79.59;93229.16;4192016;28;20052;-77
2020/12/12 07:00:34;;;;;;;3.67;2.53;;;;;;;5.29;79.74;93231.59;4183609;28;20372;-78
2020/12/12 07:02:36;;;;;;;3.97;2.58;;;;;;;5.29;80.09;93233.38;4146812;28;20402;-77
2020/12/12 07:04:37;;;;;;;4.47;2.88;;;;;;;5.17;80.32;93230.31;4194879;28;20044;-78
2020/12/12 07:06:39;;;;;;;5.18;3.05;;;;;;;5.24;80.83;93231.28;4187435;28;20049;-78
2020/12/12 07:08:40;;;;;;;4.85;3.65;;;;;;;5.36;80.38;93230.97;4176222;28;20045;-79
2020/12/12 07:10:44;;;;;;;5.25;3.40;;;;;;;5.46;79.88;93228.97;4189202;28;20063;-78
2020/12/12 07:12:45;;;;;;;6.40;4.00;;;;;;;5.48;80.00;93229.63;4188203;28;20063;-78
2020/12/12 07:14:47;;;;;;;5.55;3.58;;;;;;;5.38;79.96;93224.63;4173898;28;20056;-79
2020/12/12 07:16:56;;;;;;;5.55;3.30;;;;;;;5.21;80.57;93221.22;4193174;28;20055;-77
2020/12/12 07:18:58;;;;;;;4.70;2.85;;;;;;;5.07;81.07;93230.44;4193180;28;20071;-77
2020/12/12 07:21:00;;;;;;;5.32;2.72;;;;;;;5.12;81.43;93225.59;4194784;28;20221;-78
2020/12/12 07:23:02;;;;;;;5.13;3.22;;;;;;;5.24;81.09;93217.47;4177555;28;20048;-78
2020/12/12 07:25:05;;;;;;;4.72;3.13;;;;;;;5.09;81.24;93218.13;4183990;28;20485;-78
2020/12/12 07:27:07;;;;;;;4.70;2.80;;;;;;;5.02;81.71;93227.53;4184395;28;20147;-79
2020/12/12 07:29:08;;;;;;;5.20;3.13;;;;;;;5.14;80.90;93220.22;4178383;28;20059;-77
2020/12/12 07:31:10;;;;;;;5.28;3.00;;;;;;;5.16;81.20;93220.06;4172875;28;20044;-69
2020/12/12 07:33:11;;;;;;;4.28;3.05;;;;;;;5.20;81.48;93218.78;4174257;28;20049;-68
2020/12/12 07:35:12;;;;;;;4.05;2.75;;;;;;;5.18;80.71;93218.94;4175570;28;20044;-71
2020/12/12 07:37:14;;;;;;;5.05;3.60;;;;;;;5.25;80.31;93217.31;4192359;28;20044;-70
2020/12/12 07:39:15;;;;;;;9.00;4.63;;;;;;;5.27;80.08;93220.56;4173571;28;20454;-68
2020/12/12 07:41:17;;;;;;;10.98;5.82;;;;;;;5.32;80.46;93222.69;4190083;28;20052;-70
2020/12/12 07:43:18;;;;;;;7.47;4.43;;;;;;;5.40;80.34;93214.06;4155937;28;20050;-72
2020/12/12 07:47:34;;;;;;;12.02;6.68;;;;;;;5.48;79.85;93216.66;4192168;28;20048;-77
2020/12/12 07:49:36;;;;;;;11.32;8.45;;;;;;;5.27;81.67;93212.78;4158850;28;20112;-76
2020/12/12 07:51:37;;;;;;;9.77;7.65;;;;;;;5.34;81.90;93216.34;4156895;28;20069;-78
2020/12/12 07:53:38;;;;;;;18.17;9.45;;;;;;;5.34;81.84;93221.53;4192956;28;20052;-78
2020/12/12 07:55:45;;;;;;;14.23;10.02;;;;;;;5.30;82.24;93220.22;4191416;28;20461;-80
2020/12/12 07:57:54;;;;;;;12.63;9.82;;;;;;;5.37;81.57;93217.00;4191140;28;20078;-78
2020/12/12 08:00:10;;;;;;;13.75;9.48;;;;;;;5.36;81.17;93223.16;4192506;28;20423;-78
2020/12/12 08:02:13;;;;;;;18.50;9.98;;;;;;;5.16;82.02;93217.47;4174688;28;20107;-80
2020/12/12 08:04:24;;;;;;;13.93;9.85;;;;;;;5.18;82.18;93212.94;4174254;28;20064;-77
2020/12/12 08:06:26;;;;;;;15.40;9.30;;;;;;;5.22;81.56;93209.03;4174529;28;20433;-79
2020/12/12 08:08:27;;;;;;;12.50;7.70;;;;;;;5.21;81.70;93220.41;4157855;28;20053;-79
2020/12/12 08:10:29;;;;;;;12.27;8.35;;;;;;;5.10;81.96;93211.16;4184335;28;20106;-80
2020/12/12 08:12:34;;;;;;;13.02;7.63;;;;;;;5.06;81.55;93215.88;4173901;28;20154;-79
2020/12/12 08:14:45;;;;;;;12.40;7.65;;;;;;;4.96;82.24;93211.81;4179349;28;20053;-79
2020/12/12 08:16:47;;;;;;;10.30;7.03;;;;;;;5.03;81.58;93212.78;4193147;28;20063;-79
2020/12/12 08:18:49;;;;;;;10.13;6.72;;;;;;;4.95;81.47;93212.75;4193972;28;20484;-79
2020/12/12 08:20:50;;;;;;;8.65;5.70;;;;;;;4.89;81.29;93217.63;4174547;28;20056;-81
2020/12/12 08:22:52;;;;;;;8.85;5.68;;;;;;;4.65;82.64;93215.03;4189962;28;20063;-81
2020/12/12 08:24:53;;;;;;;10.23;6.05;;;;;;;4.76;82.21;93209.53;4191173;28;20490;-78
2020/12/12 08:26:54;;;;;;;9.93;5.35;;;;;;;4.86;81.03;93212.78;4173246;28;20428;-80
2020/12/12 08:28:59;;;;;;;7.28;4.80;;;;;;;4.77;81.51;93208.53;4191814;28;20072;-77
2020/12/12 08:31:14;;;;;;;8.48;4.80;;;;;;;4.81;81.89;93217.63;4175363;28;20057;-76
2020/12/12 08:33:16;;;;;;;5.32;3.72;;;;;;;4.72;80.72;93216.78;4181390;28;20044;-77
2020/12/12 08:35:30;;;;;;;8.52;4.75;;;;;;;4.66;82.33;93216.63;4175360;28;20108;-79
2020/12/12 08:37:31;;;;;;;7.38;3.72;;;;;;;4.68;81.76;93218.09;4192079;28;20056;-77
2020/12/12 08:39:32;;;;;;;7.88;3.63;;;;;;;4.78;81.27;93214.56;4175031;28;20091;-77
2020/12/12 08:41:36;;;;;;;10.35;5.20;;;;;;;4.93;81.49;93215.53;4170195;28;20164;-80
2020/12/12 08:43:37;;;;;;;10.45;5.88;;;;;;;5.05;80.83;93221.22;4170284;28;20053;-78
2020/12/12 08:45:40;;;;;;;9.93;4.82;;;;;;;4.97;80.51;93219.44;4174925;28;20436;-78
2020/12/12 08:47:42;;;;;;;9.63;5.65;;;;;;;4.93;79.71;93215.53;4175678;28;20052;-77
2020/12/12 08:49:54;;;;;;;14.77;8.20;;;;;;;4.81;79.46;93209.03;4194734;28;20057;-78
2020/12/12 08:51:55;;;;;;;9.68;5.30;;;;;;;4.84;79.61;93209.53;4190276;28;20040;-78
2020/12/12 08:53:58;;;;;;;9.32;5.60;;;;;;;4.84;79.43;93214.72;4194540;28;20048;-77
2020/12/12 08:56:23;;;;;;;16.10;7.10;;;;;;;4.96;80.30;93206.63;4195049;28;20083;-76
2020/12/12 08:58:35;;;;;;;13.98;8.60;;;;;;;5.01;79.86;93214.72;4177130;28;20053;-78
2020/12/12 09:00:36;;;;;;;13.95;7.80;;;;;;;4.89;79.58;93207.25;4178248;28;20495;-78
2020/12/12 09:02:37;;;;;;;11.18;6.25;;;;;;;4.87;80.35;93216.19;4185695;28;20052;-78
2020/12/12 09:04:39;;;;;;;9.50;6.47;;;;;;;4.84;80.38;93208.69;4195408;28;20044;-78
2020/12/12 09:06:43;;;;;;;9.15;6.82;;;;;;;4.94;81.20;93214.56;4202642;28;20123;-77
2020/12/12 09:09:04;;;;;;;7.70;5.85;;;;;;;4.84;79.54;93201.75;4195246;28;20172;-78
2020/12/12 09:11:13;;;;;;;8.05;5.07;;;;;;;4.90;79.29;93203.69;4193486;28;20113;-70
2020/12/12 09:13:15;;;;;;;5.68;4.10;;;;;;;4.79;79.73;93205.78;4193188;28;20075;-68
2020/12/12 09:15:16;;;;;;;8.48;4.13;;;;;;;4.81;79.76;93202.06;4176241;28;20045;-70
2020/12/12 09:17:17;;;;;;;7.28;4.82;;;;;;;4.95;79.32;93202.38;4194568;28;20575;-69
2020/12/12 09:19:19;;;;;;;7.63;4.53;;;;;;;4.90;79.88;93202.88;4194765;28;20432;-69
2020/12/12 09:21:21;;;;;;;6.97;4.45;;;;;;;4.87;78.97;93198.00;4162756;28;20507;-69
2020/12/12 09:23:22;;;;;;;8.63;5.38;;;;;;;4.90;80.00;93197.69;4192764;28;20060;-68
2020/12/12 09:25:23;;;;;;;6.18;4.25;;;;;;;4.96;78.93;93188.44;4176695;28;20057;-70
2020/12/12 09:27:24;;;;;;;7.20;4.50;;;;;;;4.96;79.80;93191.03;4173613;28;20057;-68
2020/12/12 09:29:27;;;;;;;6.45;4.38;;;;;;;4.99;79.14;93188.94;4194884;28;20048;-69
2020/12/12 09:31:29;;;;;;;5.63;4.13;;;;;;;4.82;78.13;93195.06;4186862;28;20058;-68
2020/12/12 09:33:30;;;;;;;6.60;4.28;;;;;;;4.71;79.24;93188.41;4202206;28;20399;-70
2020/12/12 09:35:32;;;;;;;8.95;5.32;;;;;;;4.79;80.29;93185.84;4176694;28;20056;-69
2020/12/12 09:37:33;;;;;;;8.77;5.38;;;;;;;4.84;79.06;93190.53;4181964;28;20044;-71
2020/12/12 09:39:34;;;;;;;7.57;5.85;;;;;;;4.84;80.26;93182.75;4193606;28;20523;-69